Time;durP1;ratioP1;P1;durP2;ratioP2;P2;SDS_P1;SDS_P2;PMS_P1;PMS_P2;Temp;Humidity;BMP_temperature;BMP_pressure;BME280_temperature;BME280_humidity;BME280_pressure;Samples;Min_cycle;Max_cycle;Signal;HPM_P1;HPM_P2
2022/11/29 00:01:17;;;;;;;;;;;;;;;19.25;48.04;101001.06;5117506;27;19923;-42
2022/11/29 00:03:42;;;;;;;;;;;;;;;19.25;47.94;100991.94;5121664;27;19961;-41
2022/11/29 00:06:09;;;;;;;;;;;;;;;19.25;48.06;100991.94;5131948;27;19923;-40
2022/11/29 00:08:35;;;;;;;;;;;;;;;19.25;48.15;100997.47;5122010;27;20006;-41
2022/11/29 00:11:02;;;;;;;;;;;;;;;19.25;48.03;101001.06;5123809;27;20025;-41
2022/11/29 00:13:28;;;;;;;;;;;;;;;19.24;47.99;100993.88;5118163;27;19958;-42
2022/11/29 00:15:53;;;;;;;;;;;;;;;19.23;48.30;101000.53;5134530;27;19923;-41
2022/11/29 00:18:19;;;;;;;;;;;;;;;19.25;48.09;100994.72;5131083;27;19940;-41
2022/11/29 00:20:44;;;;;;;;;;;;;;;19.25;48.30;100997.47;5127574;27;20297;-43
2022/11/29 00:23:10;;;;;;;;;;;;;;;19.24;48.01;100999.41;5131255;27;19931;-43
2022/11/29 00:25:36;;;;;;;;;;;;;;;19.23;47.98;100995.00;5127228;27;19981;-41
2022/11/29 00:28:02;;;;;;;;;;;;;;;19.25;48.02;101000.22;5121324;27;19974;-43
2022/11/29 00:30:27;;;;;;;;;;;;;;;19.23;48.09;101000.53;5119173;27;19924;-41
2022/11/29 00:32:53;;;;;;;;;;;;;;;19.24;47.95;100999.41;5128867;27;19927;-43
2022/11/29 00:35:19;;;;;;;;;;;;;;;19.23;48.10;100996.94;5125003;27;19932;-42
2022/11/29 00:37:44;;;;;;;;;;;;;;;19.24;48.30;101007.69;5131914;27;19932;-41
2022/11/29 00:40:10;;;;;;;;;;;;;;;19.23;48.09;101005.22;5140596;27;19923;-41
2022/11/29 00:42:35;;;;;;;;;;;;;;;19.24;47.98;101004.94;5120536;27;20403;-41
2022/11/29 00:45:01;;;;;;;;;;;;;;;19.23;48.03;101010.75;5118512;27;20395;-42
2022/11/29 00:47:27;;;;;;;;;;;;;;;19.24;48.10;101009.63;5125276;27;19924;-41
2022/11/29 00:49:52;;;;;;;;;;;;;;;19.22;48.18;101007.16;5128133;27;20330;-41
2022/11/29 00:52:18;;;;;;;;;;;;;;;19.23;48.03;101003.28;5133841;27;20095;-41
2022/11/29 00:54:43;;;;;;;;;;;;;;;19.23;48.26;101011.56;5129981;27;19934;-42
2022/11/29 00:57:09;;;;;;;;;;;;;;;19.23;48.31;100999.69;5132587;27;19931;-44
2022/11/29 00:59:35;;;;;;;;;;;;;;;19.22;47.94;101014.63;5121011;27;19923;-41
2022/11/29 01:02:00;;;;;;;;;;;;;;;19.22;48.11;101009.91;5119339;27;20399;-42
2022/11/29 01:04:26;;;;;;;;;;;;;;;19.23;48.47;101007.97;5123423;27;19924;-42
2022/11/29 01:06:52;;;;;;;;;;;;;;;19.23;47.90;101005.22;5120661;27;19923;-43
2022/11/29 01:09:17;;;;;;;;;;;;;;;19.23;48.13;101007.97;5124769;27;20375;-43
2022/11/29 01:11:43;;;;;;;;;;;;;;;19.22;48.23;101007.16;5135109;27;19924;-40
2022/11/29 01:14:09;;;;;;;;;;;;;;;19.23;47.96;101010.75;5128379;27;19930;-43
2022/11/29 01:16:35;;;;;;;;;;;;;;;19.22;48.17;101017.38;5132928;27;20010;-42
2022/11/29 01:19:01;;;;;;;;;;;;;;;19.21;47.97;101016.56;5126883;27;19961;-43
2022/11/29 01:21:26;;;;;;;;;;;;;;;19.22;48.06;101018.19;5128185;27;19949;-45
2022/11/29 01:23:52;;;;;;;;;;;;;;;19.21;48.06;101008.28;5130232;27;20346;-41
2022/11/29 01:26:19;;;;;;;;;;;;;;;19.22;48.02;101020.97;5132455;27;20398;-43
2022/11/29 01:28:45;;;;;;;;;;;;;;;19.22;48.29;101022.91;5128195;27;19951;-43
2022/11/29 01:31:12;;;;;;;;;;;;;;;19.22;47.96;101022.91;5124145;27;20014;-42
2022/11/29 01:33:38;;;;;;;;;;;;;;;19.22;48.31;101023.72;5124070;27;19931;-43
2022/11/29 01:36:04;;;;;;;;;;;;;;;19.22;47.93;101020.13;5134737;27;19927;-41
2022/11/29 01:38:29;;;;;;;;;;;;;;;19.22;47.93;101022.91;5134936;27;19934;-41
2022/11/29 01:40:57;;;;;;;;;;;;;;;19.22;48.09;101026.47;5128918;28;19976;-41
2022/11/29 01:43:23;;;;;;;;;;;;;;;19.21;48.10;101016.56;5136120;27;19996;-42
2022/11/29 01:45:48;;;;;;;;;;;;;;;19.21;48.02;101022.06;5130854;27;19931;-42
2022/11/29 01:48:14;;;;;;;;;;;;;;;19.22;48.29;101022.91;5126686;27;20272;-42
2022/11/29 01:50:40;;;;;;;;;;;;;;;19.20;48.24;101020.41;5129869;27;20280;-41
2022/11/29 01:53:05;;;;;;;;;;;;;;;19.22;47.89;101031.19;5135934;27;19924;-43
2022/11/29 01:55:31;;;;;;;;;;;;;;;19.21;48.09;101029.50;5120109;27;20015;-43
2022/11/29 01:57:58;;;;;;;;;;;;;;;19.20;48.18;101028.69;5137195;27;19961;-41
2022/11/29 02:00:23;;;;;;;;;;;;;;;19.21;48.29;101035.03;5129960;27;19986;-41
2022/11/29 02:02:51;;;;;;;;;;;;;;;19.20;47.96;101038.91;5130683;27;19928;-42
2022/11/29 02:05:16;;;;;;;;;;;;;;;19.19;47.91;101035.31;5127017;27;19923;-42
2022/11/29 02:07:43;;;;;;;;;;;;;;;19.20;48.04;101033.38;5128227;27;20502;-42
2022/11/29 02:10:09;;;;;;;;;;;;;;;19.20;47.95;101033.38;5120551;27;20410;-41
2022/11/29 02:12:54;;;;;;;;;;;;;;;19.20;48.04;101031.44;5126046;27;19934;-41
2022/11/29 02:15:39;;;;;;;;;;;;;;;19.19;47.99;101029.78;5124335;27;19967;-41
2022/11/29 02:18:07;;;;;;;;;;;;;;;19.20;47.86;101025.09;5136950;27;19927;-44
2022/11/29 02:20:52;;;;;;;;;;;;;;;19.20;47.93;101033.38;5126606;27;19959;-43
2022/11/29 02:23:38;;;;;;;;;;;;;;;19.20;48.20;101033.38;5116986;27;19963;-42
2022/11/29 02:26:23;;;;;;;;;;;;;;;19.20;48.02;101033.38;5134852;27;19959;-42
2022/11/29 02:29:02;;;;;;;;;;;;;;;19.20;47.91;101041.66;5129743;27;19965;-40
2022/11/29 02:31:46;;;;;;;;;;;;;;;19.19;48.09;101038.06;5130957;27;19951;-42
2022/11/29 02:34:32;;;;;;;;;;;;;;;19.19;48.19;101046.34;5127118;27;19955;-42
2022/11/29 02:37:16;;;;;;;;;;;;;;;19.19;48.14;101043.59;5128461;27;19979;-42
2022/11/29 02:39:46;;;;;;;;;;;;;;;19.19;48.04;101051.06;5130316;27;20004;-42
2022/11/29 02:42:25;;;;;;;;;;;;;;;19.19;47.97;101051.88;5122971;27;20004;-42
2022/11/29 02:44:53;;;;;;;;;;;;;;;19.19;48.26;101048.28;5122286;27;19999;-42
2022/11/29 02:47:38;;;;;;;;;;;;;;;19.19;48.04;101049.13;5130785;27;20148;-42
2022/11/29 02:53:01;;;;;;;;;;;;;;;19.19;47.94;101059.34;5184941;27;19925;-40
2022/11/29 02:58:26;;;;;;;;;;;;;;;19.19;47.94;101062.09;5185405;27;19926;-41
2022/11/29 03:01:11;;;;;;;;;;;;;;;19.18;48.18;101069.56;5179712;27;19977;-43
2022/11/29 03:03:54;;;;;;;;;;;;;;;19.18;48.10;101064.03;5137881;27;19923;-42
2022/11/29 03:06:24;;;;;;;;;;;;;;;19.19;48.02;101067.63;5154094;27;19967;-41
2022/11/29 03:09:10;;;;;;;;;;;;;;;19.19;47.99;101062.09;5151415;27;19989;-41
2022/11/29 03:11:39;;;;;;;;;;;;;;;19.17;48.10;101070.66;5134929;27;20283;-41
2022/11/29 03:14:23;;;;;;;;;;;;;;;19.17;48.31;101065.16;5149054;27;20014;-40
2022/11/29 03:17:06;;;;;;;;;;;;;;;19.19;48.01;101070.38;5134145;27;20327;-41
2022/11/29 03:19:42;;;;;;;;;;;;;;;19.19;48.36;101082.25;5152006;27;20079;-41
2022/11/29 03:22:28;;;;;;;;;;;;;;;19.19;48.27;101081.44;5149134;27;19976;-41
2022/11/29 03:24:55;;;;;;;;;;;;;;;19.18;48.34;101086.13;5134272;27;19951;-41
2022/11/29 03:27:24;;;;;;;;;;;;;;;19.19;47.99;101087.78;5134329;27;19993;-41
2022/11/29 03:29:53;;;;;;;;;;;;;;;19.18;48.04;101088.06;5152009;27;19954;-43
2022/11/29 03:32:23;;;;;;;;;;;;;;;19.18;48.28;101090.81;5135385;27;19967;-43
2022/11/29 03:34:53;;;;;;;;;;;;;;;19.18;48.09;101096.34;5145494;27;20014;-44
2022/11/29 03:37:42;;;;;;;;;;;;;;;19.17;48.33;101095.50;5130566;27;19990;-44
2022/11/29 03:40:10;;;;;;;;;;;;;;;19.17;48.44;101092.75;5134810;27;20015;-41
2022/11/29 03:42:53;;;;;;;;;;;;;;;19.18;47.95;101090.81;5130963;27;19962;-41
2022/11/29 03:45:22;;;;;;;;;;;;;;;19.17;48.26;101101.03;5147972;27;20036;-41
2022/11/29 03:47:54;;;;;;;;;;;;;;;19.17;48.17;101100.19;5152851;27;19969;-42
2022/11/29 03:50:22;;;;;;;;;;;;;;;19.17;48.05;101100.19;5148289;27;20344;-43
2022/11/29 03:52:51;;;;;;;;;;;;;;;19.17;48.26;101098.28;5132591;27;20014;-41
2022/11/29 03:58:14;;;;;;;;;;;;;;;19.17;48.10;101106.56;5163694;27;19945;-41
2022/11/29 04:00:49;;;;;;;;;;;;;;;19.17;48.03;101106.56;5131154;27;19970;-41
2022/11/29 04:03:34;;;;;;;;;;;;;;;19.16;48.07;101107.63;5129701;27;19978;-43
2022/11/29 04:06:18;;;;;;;;;;;;;;;19.18;48.02;101112.91;5120949;27;20619;-41
2022/11/29 04:09:03;;;;;;;;;;;;;;;19.17;48.00;101114.84;5112365;27;20169;-42
2022/11/29 04:11:57;;;;;;;;;;;;;;;19.16;48.36;101113.16;5110923;28;20329;-41
2022/11/29 04:14:26;;;;;;;;;;;;;;;19.17;48.09;101119.50;5112009;27;20380;-41
2022/11/29 04:16:57;;;;;;;;;;;;;;;19.18;48.17;101116.50;5111096;27;19959;-41
2022/11/29 04:19:43;;;;;;;;;;;;;;;19.17;47.96;101125.88;5120554;27;20335;-41
2022/11/29 04:22:28;;;;;;;;;;;;;;;19.17;48.26;101116.75;5112005;27;20011;-40
2022/11/29 04:25:14;;;;;;;;;;;;;;;19.17;48.01;101119.50;5115751;27;20045;-41
2022/11/29 04:27:59;;;;;;;;;;;;;;;19.17;48.24;101131.41;5109986;27;19971;-41
2022/11/29 04:30:25;;;;;;;;;;;;;;;19.16;48.18;101118.69;5107416;27;19993;-41
2022/11/29 04:33:00;;;;;;;;;;;;;;;19.16;47.98;101121.44;5124005;27;20378;-41
2022/11/29 04:35:47;;;;;;;;;;;;;;;19.17;48.39;101127.78;5113624;27;19962;-41
2022/11/29 04:38:17;;;;;;;;;;;;;;;19.17;48.26;101133.31;5112151;27;19951;-42
2022/11/29 04:41:02;;;;;;;;;;;;;;;19.16;48.07;101129.72;5123028;27;19959;-44
2022/11/29 04:43:34;;;;;;;;;;;;;;;19.16;48.42;101138.00;5115619;27;19970;-44
2022/11/29 04:46:03;;;;;;;;;;;;;;;19.16;48.18;101143.53;5114629;27;20469;-40
2022/11/29 04:48:48;;;;;;;;;;;;;;;19.16;48.32;101140.78;5137172;27;19927;-41
2022/11/29 04:51:34;;;;;;;;;;;;;;;19.16;48.10;101151.81;5104324;28;20375;-41
2022/11/29 04:54:05;;;;;;;;;;;;;;;19.16;48.45;101151.00;5103127;27;19963;-42
2022/11/29 04:56:39;;;;;;;;;;;;;;;19.16;48.21;101157.34;5129456;27;19974;-44
2022/11/29 04:59:22;;;;;;;;;;;;;;;19.16;48.11;101154.56;5132695;27;20022;-40
2022/11/29 05:02:08;;;;;;;;;;;;;;;19.17;48.32;101171.97;5127836;27;19951;-41
2022/11/29 05:04:36;;;;;;;;;;;;;;;19.16;48.46;101168.38;5120468;27;19967;-41
2022/11/29 05:07:04;;;;;;;;;;;;;;;19.16;48.03;101171.13;5108120;27;19949;-41
2022/11/29 05:09:34;;;;;;;;;;;;;;;19.17;48.20;101169.19;5088067;28;19967;-42
2022/11/29 05:12:03;;;;;;;;;;;;;;;19.15;48.22;101177.78;5093641;28;19974;-41
2022/11/29 05:14:35;;;;;;;;;;;;;;;19.15;48.42;101177.78;5115805;28;19992;-41
2022/11/29 05:17:07;;;;;;;;;;;;;;;19.16;48.33;101175.84;5096049;28;20497;-42
2022/11/29 05:22:21;;;;;;;;;;;;;;;19.16;48.03;101181.34;5181481;27;20389;-41
2022/11/29 05:24:51;;;;;;;;;;;;;;;19.16;48.13;101181.34;5156337;27;20428;-43
2022/11/29 05:27:22;;;;;;;;;;;;;;;19.16;48.06;101184.94;5157517;27;19923;-41
2022/11/29 05:30:05;;;;;;;;;;;;;;;19.15;48.40;101188.81;5136218;27;20328;-41
2022/11/29 05:32:33;;;;;;;;;;;;;;;19.15;48.12;101194.34;5148592;27;19975;-42
2022/11/29 05:35:18;;;;;;;;;;;;;;;19.15;48.06;101188.81;5135089;27;19993;-43
2022/11/29 05:37:52;;;;;;;;;;;;;;;19.16;48.37;101200.69;5164265;27;19954;-43
2022/11/29 05:40:37;;;;;;;;;;;;;;;19.16;48.37;101197.91;5159664;27;20381;-42
2022/11/29 05:43:22;;;;;;;;;;;;;;;19.15;48.42;101202.63;5136947;27;19970;-45
2022/11/29 05:45:51;;;;;;;;;;;;;;;19.15;48.12;101208.13;5145157;27;19963;-42
2022/11/29 05:48:23;;;;;;;;;;;;;;;19.15;48.29;101210.91;5130598;27;20019;-42
2022/11/29 05:50:54;;;;;;;;;;;;;;;19.15;48.16;101210.06;5121678;27;20026;-41
2022/11/29 05:53:21;;;;;;;;;;;;;;;19.16;48.49;101220.00;5153406;27;20470;-43
2022/11/29 05:55:53;;;;;;;;;;;;;;;19.15;48.33;101221.13;5131146;27;19958;-44
2022/11/29 05:58:25;;;;;;;;;;;;;;;19.15;48.24;101221.94;5159285;27;19962;-41
2022/11/29 06:00:58;;;;;;;;;;;;;;;19.15;48.29;101221.94;5154549;27;19958;-42
2022/11/29 06:03:33;;;;;;;;;;;;;;;19.15;48.36;101224.72;5134160;27;19962;-44
2022/11/29 06:06:01;;;;;;;;;;;;;;;19.15;48.42;101226.63;5136693;27;20017;-44
2022/11/29 06:11:12;;;;;;;;;;;;;;;19.16;48.16;101236.56;5166771;27;20293;-44
2022/11/29 06:13:58;;;;;;;;;;;;;;;19.15;48.42;101246.78;5162538;27;19969;-42
2022/11/29 06:16:28;;;;;;;;;;;;;;;19.15;48.22;101244.03;5149526;27;19958;-43
2022/11/29 06:19:16;;;;;;;;;;;;;;;19.15;48.19;101251.50;5146905;27;20022;-42
2022/11/29 06:21:45;;;;;;;;;;;;;;;19.15;48.29;101257.00;5146551;27;19962;-41
2022/11/29 06:24:17;;;;;;;;;;;;;;;19.15;48.47;101262.53;5141876;27;19963;-43
2022/11/29 06:27:09;;;;;;;;;;;;;;;19.15;48.32;101259.78;5161744;27;19992;-41
2022/11/29 06:29:43;;;;;;;;;;;;;;;19.16;48.46;101269.69;5147410;27;20021;-43
2022/11/29 06:32:14;;;;;;;;;;;;;;;19.15;48.30;101273.56;5163301;27;19979;-43
2022/11/29 06:34:41;;;;;;;;;;;;;;;19.14;48.41;101269.16;5160765;27;20468;-41
2022/11/29 06:37:12;;;;;;;;;;;;;;;19.15;48.30;101270.81;5147503;27;19958;-45
2022/11/29 06:39:38;;;;;;;;;;;;;;;19.15;48.47;101268.06;5168073;27;19959;-43
2022/11/29 06:42:03;;;;;;;;;;;;;;;19.14;48.25;101267.22;5167546;27;20096;-41
2022/11/29 06:44:29;;;;;;;;;;;;;;;19.15;48.31;101273.56;5156058;27;20367;-42
2022/11/29 06:47:05;;;;;;;;;;;;;;;19.21;49.21;101278.00;5153910;27;19999;-41
2022/11/29 06:52:20;;;;;;;;;;;;;;;18.45;49.26;101273.00;5169805;27;19926;-52
2022/11/29 06:55:06;;;;;;;;;;;;;;;18.87;49.04;101272.94;5164177;27;19923;-42
2022/11/29 06:57:42;;;;;;;;;;;;;;;19.02;48.53;101272.97;5151463;27;19927;-43
2022/11/29 07:00:15;;;;;;;;;;;;;;;19.08;48.54;101275.75;5154789;27;19977;-41
2022/11/29 07:05:27;;;;;;;;;;;;;;;19.14;48.25;101289.31;5157510;27;20021;-41
2022/11/29 07:07:54;;;;;;;;;;;;;;;19.15;48.38;101292.91;5151643;27;20482;-41
2022/11/29 07:10:20;;;;;;;;;;;;;;;19.16;48.30;101295.38;5160418;27;19927;-43
2022/11/29 07:12:46;;;;;;;;;;;;;;;19.17;48.41;101294.28;5159407;27;20014;-42
2022/11/29 07:15:13;;;;;;;;;;;;;;;19.19;48.36;101291.25;5162465;27;19951;-41
2022/11/29 07:17:59;;;;;;;;;;;;;;;19.18;48.01;101295.94;5153978;27;19963;-40
2022/11/29 07:20:30;;;;;;;;;;;;;;;19.19;48.08;101296.78;5135952;27;19979;-42
2022/11/29 07:22:59;;;;;;;;;;;;;;;19.20;48.08;101295.66;5162218;27;20351;-41
2022/11/29 07:25:34;;;;;;;;;;;;;;;19.21;48.17;101302.84;5158642;27;20638;-41
2022/11/29 07:28:19;;;;;;;;;;;;;;;19.20;48.11;101303.94;5154086;27;19969;-40
2022/11/29 07:30:50;;;;;;;;;;;;;;;19.21;48.06;101306.47;5134889;27;19931;-40
2022/11/29 07:33:35;;;;;;;;;;;;;;;19.22;48.26;101313.63;5159271;27;20022;-42
2022/11/29 07:36:08;;;;;;;;;;;;;;;19.22;48.26;101323.84;5141556;27;19969;-43
2022/11/29 07:38:43;;;;;;;;;;;;;;;19.16;47.04;101322.16;5143800;27;20380;-53
2022/11/29 07:41:28;;;;;;;;;;;;;;;19.08;47.26;101330.97;5156794;27;19927;-41
2022/11/29 07:46:28;;;;;;;;;;;;;;;19.17;47.81;101332.09;5161234;27;20408;-44
2022/11/29 07:48:54;;;;;;;;;;;;;;;19.20;47.83;101343.44;5154757;27;19927;-41
2022/11/29 07:51:20;;;;;;;;;;;;;;;19.23;48.16;101350.34;5151983;27;19930;-41
2022/11/29 07:53:45;;;;;;;;;;;;;;;19.22;47.91;101355.06;5148528;27;19972;-40
2022/11/29 07:56:12;;;;;;;;;;;;;;;19.23;48.25;101353.94;5150553;27;19938;-45
2022/11/29 07:58:37;;;;;;;;;;;;;;;19.24;48.01;101358.34;5152699;27;19982;-45
2022/11/29 08:01:03;;;;;;;;;;;;;;;19.27;48.19;101357.00;5145379;27;20298;-41
2022/11/29 08:03:29;;;;;;;;;;;;;;;19.28;48.01;101355.88;5127667;27;20604;-43
2022/11/29 08:05:54;;;;;;;;;;;;;;;19.28;47.97;101359.47;5114447;27;20059;-41
2022/11/29 08:08:20;;;;;;;;;;;;;;;19.28;48.18;101353.13;5109349;27;19943;-43
2022/11/29 08:10:46;;;;;;;;;;;;;;;19.29;47.96;101355.59;5127128;27;19935;-43
2022/11/29 08:13:11;;;;;;;;;;;;;;;19.28;47.96;101353.13;5134064;27;19934;-40
2022/11/29 08:15:42;;;;;;;;;;;;;;;19.28;48.29;101355.88;5105283;27;19955;-42
2022/11/29 08:18:07;;;;;;;;;;;;;;;19.29;48.12;101354.78;5127336;27;19962;-41
2022/11/29 08:20:33;;;;;;;;;;;;;;;19.29;48.19;101352.03;5132996;27;20000;-41
2022/11/29 08:22:58;;;;;;;;;;;;;;;19.29;48.25;101358.38;5125410;27;20883;-43
2022/11/29 08:25:24;;;;;;;;;;;;;;;19.30;48.09;101356.47;5130596;27;19973;-41
2022/11/29 08:27:50;;;;;;;;;;;;;;;19.30;48.00;101360.06;5124451;27;19931;-42
2022/11/29 08:30:17;;;;;;;;;;;;;;;19.31;48.39;101366.41;5131450;27;20022;-43
2022/11/29 08:32:43;;;;;;;;;;;;;;;19.32;48.07;101367.22;5128388;27;20030;-41
2022/11/29 08:35:16;;;;;;;;;;;;;;;19.32;48.25;101370.00;5127458;27;20287;-42
2022/11/29 08:37:42;;;;;;;;;;;;;;;19.32;48.14;101368.06;5113232;27;19974;-40
2022/11/29 08:40:08;;;;;;;;;;;;;;;19.33;48.06;101379.94;5132987;27;19923;-44
2022/11/29 08:42:33;;;;;;;;;;;;;;;19.33;48.09;101377.16;5134322;27;19941;-43
2022/11/29 08:44:59;;;;;;;;;;;;;;;19.34;48.14;101376.06;5124545;27;19938;-41
2022/11/29 08:47:41;;;;;;;;;;;;;;;19.33;48.16;101377.16;5131086;27;19931;-44
2022/11/29 08:50:11;;;;;;;;;;;;;;;19.35;48.22;101380.50;5127350;27;20004;-42
2022/11/29 08:55:23;;;;;;;;;;;;;;;19.35;48.06;101397.91;5131430;27;19995;-41
2022/11/29 08:57:49;;;;;;;;;;;;;;;19.36;48.03;101383.00;5080539;28;19974;-43
2022/11/29 09:00:15;;;;;;;;;;;;;;;19.35;48.03;101384.09;5099767;28;20030;-41
2022/11/29 09:02:41;;;;;;;;;;;;;;;19.37;48.14;101397.63;5096630;27;19974;-41
2022/11/29 09:05:07;;;;;;;;;;;;;;;19.37;48.00;101394.84;5110306;27;20287;-41
2022/11/29 09:07:32;;;;;;;;;;;;;;;19.37;48.10;101400.38;5091188;27;20032;-41
2022/11/29 09:09:59;;;;;;;;;;;;;;;19.37;48.00;101436.28;5114495;27;19932;-42
2022/11/29 09:12:25;;;;;;;;;;;;;;;19.28;49.56;101402.84;5116266;28;19989;-46
2022/11/29 09:14:50;;;;;;;;;;;;;;;19.11;49.54;101416.84;5110791;28;20438;-41
2022/11/29 09:17:16;;;;;;;;;;;;;;;19.33;49.01;101405.63;5097489;28;19927;-41
2022/11/29 09:19:42;;;;;;;;;;;;;;;19.38;49.24;101415.84;5113956;27;19923;-41
2022/11/29 09:22:07;;;;;;;;;;;;;;;19.38;49.07;101411.16;5118214;28;19931;-43
2022/11/29 09:24:33;;;;;;;;;;;;;;;19.40;49.17;101420.00;5119556;28;19934;-43
2022/11/29 09:26:58;;;;;;;;;;;;;;;19.39;49.14;101415.59;5114402;27;19946;-40
2022/11/29 09:29:24;;;;;;;;;;;;;;;19.41;49.05;101421.66;5109426;27;20028;-42
2022/11/29 09:31:49;;;;;;;;;;;;;;;19.42;48.85;101416.97;5109633;27;20473;-43
2022/11/29 09:34:15;;;;;;;;;;;;;;;19.42;48.94;101426.09;5112261;27;19935;-42
2022/11/29 09:36:43;;;;;;;;;;;;;;;19.43;49.06;101426.91;5106624;27;20612;-41
2022/11/29 09:39:08;;;;;;;;;;;;;;;19.43;48.81;101427.78;5109932;27;20018;-42
2022/11/29 09:41:40;;;;;;;;;;;;;;;19.41;48.60;101432.72;5089209;28;20295;-42
2022/11/29 09:44:33;;;;;;;;;;;;;;;19.10;48.43;101437.28;5116164;27;19938;-41
2022/11/29 09:47:18;;;;;;;;;;;;;;;19.33;48.25;101441.50;5096470;27;20022;-41
2022/11/29 09:49:50;;;;;;;;;;;;;;;19.39;48.12;101443.22;5097316;28;20090;-42
2022/11/29 09:52:20;;;;;;;;;;;;;;;19.33;47.97;101443.44;5110702;27;19963;-40
2022/11/29 09:54:53;;;;;;;;;;;;;;;19.40;48.56;101446.81;5114333;27;20763;-42
2022/11/29 09:57:18;;;;;;;;;;;;;;;19.42;48.60;101450.13;5116185;27;20065;-42
2022/11/29 09:59:46;;;;;;;;;;;;;;;19.43;48.63;101457.28;5120297;27;19931;-40
2022/11/29 10:02:15;;;;;;;;;;;;;;;19.43;48.45;101458.16;5099312;27;19934;-40
2022/11/29 10:04:48;;;;;;;;;;;;;;;19.45;48.37;101463.41;5113618;27;19942;-42
2022/11/29 10:07:20;;;;;;;;;;;;;;;19.44;48.65;101458.97;5092516;27;20066;-40
2022/11/29 10:09:47;;;;;;;;;;;;;;;19.44;48.46;101465.34;5109016;27;21130;-42
2022/11/29 10:12:33;;;;;;;;;;;;;;;19.44;48.27;101462.56;5089287;28;19959;-41
2022/11/29 10:15:19;;;;;;;;;;;;;;;19.45;48.28;101455.94;5098650;28;20291;-41
2022/11/29 10:17:48;;;;;;;;;;;;;;;19.44;48.08;101454.28;5101210;28;20403;-42
2022/11/29 10:20:15;;;;;;;;;;;;;;;19.45;48.31;101453.16;5110593;27;20782;-42
2022/11/29 10:22:42;;;;;;;;;;;;;;;19.45;48.17;101450.41;5098847;28;20660;-40
2022/11/29 10:25:09;;;;;;;;;;;;;;;19.46;47.74;101454.81;5112921;27;20061;-41
2022/11/29 10:27:34;;;;;;;;;;;;;;;19.46;47.75;101454.00;5116030;27;19997;-42
2022/11/29 10:30:01;;;;;;;;;;;;;;;19.47;48.29;101455.66;5116487;27;20346;-40
2022/11/29 10:32:29;;;;;;;;;;;;;;;19.46;48.16;101454.81;5116327;27;19982;-41
2022/11/29 10:34:57;;;;;;;;;;;;;;;19.46;47.65;101454.00;5096918;28;20089;-41
2022/11/29 10:37:22;;;;;;;;;;;;;;;19.42;47.90;101450.94;5115476;27;20035;-40
2022/11/29 10:39:50;;;;;;;;;;;;;;;19.45;47.99;101458.69;5112925;27;20367;-42
2022/11/29 10:42:48;;;;;;;;;;;;;;;19.46;48.25;101452.06;5085592;28;20137;-41
2022/11/29 10:45:04;;;;;;;;;;;;;;;19.48;48.28;101451.81;5066389;28;19932;-41
2022/11/29 10:47:30;;;;;;;;;;;;;;;19.48;48.32;101446.28;5092748;28;20034;-40
2022/11/29 10:49:55;;;;;;;;;;;;;;;19.48;48.36;101449.88;5091676;27;19928;-40
2022/11/29 10:52:21;;;;;;;;;;;;;;;19.49;48.44;101454.28;5116909;28;19931;-41
2022/11/29 10:54:47;;;;;;;;;;;;;;;19.49;48.23;101446.00;5098159;28;20022;-43
2022/11/29 10:57:14;;;;;;;;;;;;;;;19.47;48.03;101452.88;5099715;28;19931;-41
2022/11/29 10:59:40;;;;;;;;;;;;;;;19.49;48.13;101448.78;5116557;27;20018;-40
2022/11/29 11:02:14;;;;;;;;;;;;;;;19.49;47.82;101453.47;5115421;27;19931;-42
2022/11/29 11:04:42;;;;;;;;;;;;;;;19.49;48.45;101456.22;5116784;27;20392;-47
2022/11/29 11:07:10;;;;;;;;;;;;;;;19.50;48.16;101447.66;5121871;28;19972;-40
2022/11/29 11:09:39;;;;;;;;;;;;;;;19.50;48.50;101449.59;5121820;28;20470;-41
2022/11/29 11:12:05;;;;;;;;;;;;;;;19.49;48.37;101448.78;5116721;28;20347;-42
2022/11/29 11:14:33;;;;;;;;;;;;;;;19.49;48.42;101457.06;5117323;28;20018;-41
2022/11/29 11:17:18;;;;;;;;;;;;;;;19.50;48.11;101447.66;5118099;28;19931;-41
2022/11/29 11:19:53;;;;;;;;;;;;;;;19.50;48.07;101453.19;5094277;27;20310;-40
2022/11/29 11:22:19;;;;;;;;;;;;;;;19.51;48.27;101457.59;5116917;27;20022;-41
2022/11/29 11:24:45;;;;;;;;;;;;;;;19.13;48.00;101453.31;5106736;27;20010;-45
2022/11/29 11:27:11;;;;;;;;;;;;;;;19.38;48.18;101452.56;5115322;27;20328;-40
2022/11/29 11:29:37;;;;;;;;;;;;;;;19.46;47.90;101457.59;5113424;27;20299;-41
2022/11/29 11:32:03;;;;;;;;;;;;;;;19.49;48.25;101459.81;5120425;27;20232;-43
2022/11/29 11:34:32;;;;;;;;;;;;;;;19.51;47.82;101456.78;5096306;28;19924;-41
2022/11/29 11:39:49;;;;;;;;;;;;;;;19.50;48.00;101460.66;5146135;27;19926;-43
2022/11/29 11:42:48;;;;;;;;;;;;;;;19.50;47.99;101464.25;5128160;27;19935;-42
2022/11/29 11:45:11;;;;;;;;;;;;;;;19.49;47.76;101461.75;5115304;27;19969;-42
2022/11/29 11:47:53;;;;;;;;;;;;;;;19.49;47.76;101459.81;5139721;27;20046;-42
2022/11/29 11:50:27;;;;;;;;;;;;;;;19.51;48.33;101465.88;5139184;27;19999;-42
2022/11/29 11:52:53;;;;;;;;;;;;;;;19.51;47.77;101467.81;5123633;27;19938;-42
2022/11/29 11:55:23;;;;;;;;;;;;;;;19.45;48.12;101466.16;5130050;27;20328;-41
2022/11/29 11:58:05;;;;;;;;;;;;;;;19.51;47.86;101465.06;5136139;27;20069;-41
2022/11/29 12:00:40;;;;;;;;;;;;;;;19.53;48.07;101462.88;5121303;27;19938;-43
2022/11/29 12:03:31;;;;;;;;;;;;;;;19.52;48.06;101462.06;5116989;27;20058;-40
2022/11/29 12:06:00;;;;;;;;;;;;;;;19.52;47.67;101467.56;5132617;27;20015;-42
2022/11/29 12:08:25;;;;;;;;;;;;;;;19.53;48.06;101469.22;5133443;27;20405;-43
2022/11/29 12:10:51;;;;;;;;;;;;;;;19.54;48.18;101461.78;5139035;27;19932;-43
2022/11/29 12:13:18;;;;;;;;;;;;;;;19.54;48.11;101470.06;5140139;27;20010;-40
2022/11/29 12:15:44;;;;;;;;;;;;;;;19.53;47.84;101469.22;5122893;27;20059;-42
2022/11/29 12:18:11;;;;;;;;;;;;;;;19.53;48.29;101469.22;5131607;27;19931;-42
2022/11/29 12:20:43;;;;;;;;;;;;;;;19.54;48.04;101470.88;5139912;27;20018;-41
2022/11/29 12:26:06;;;;;;;;;;;;;;;19.54;48.42;101476.41;5133720;27;19938;-39
2022/11/29 12:28:33;;;;;;;;;;;;;;;19.56;48.21;101484.44;5105811;27;19931;-41
2022/11/29 12:34:02;;;;;;;;;;;;;;;19.57;48.26;101488.03;5156476;27;19929;-40
2022/11/29 12:36:48;;;;;;;;;;;;;;;19.45;48.22;101488.25;5118913;27;20010;-40
2022/11/29 12:39:33;;;;;;;;;;;;;;;19.54;48.10;101497.69;5123712;27;19931;-40
2022/11/29 12:42:01;;;;;;;;;;;;;;;19.55;47.82;101491.06;5127311;27;21478;-43
2022/11/29 12:44:35;;;;;;;;;;;;;;;19.56;47.71;101503.78;5136934;27;19975;-40
2022/11/29 12:47:03;;;;;;;;;;;;;;;19.55;47.69;101500.16;5140758;27;20022;-41
2022/11/29 12:50:08;;;;;;;;;;;;;;;19.58;48.05;101507.09;5129829;27;20379;-40
2022/11/29 12:52:39;;;;;;;;;;;;;;;19.57;47.64;101510.13;5132620;27;20005;-40
2022/11/29 12:55:09;;;;;;;;;;;;;;;19.58;47.64;101511.78;5146869;27;20036;-41
2022/11/29 12:57:37;;;;;;;;;;;;;;;19.58;47.68;101514.56;5132443;27;20021;-45
2022/11/29 13:00:06;;;;;;;;;;;;;;;19.58;47.94;101515.38;5159239;27;20055;-44
2022/11/29 13:02:51;;;;;;;;;;;;;;;19.59;47.96;101516.22;5148736;27;20332;-41
2022/11/29 13:05:37;;;;;;;;;;;;;;;19.64;48.00;101519.84;5123548;27;20439;-41
2022/11/29 13:08:08;;;;;;;;;;;;;;;19.53;48.00;101527.25;5121661;27;19927;-42
2022/11/29 13:10:47;;;;;;;;;;;;;;;19.61;47.58;101527.88;5141770;27;19969;-42
2022/11/29 13:16:08;;;;;;;;;;;;;;;19.61;48.17;101523.19;5146306;27;19934;-42
2022/11/29 13:18:36;;;;;;;;;;;;;;;19.61;48.13;101525.94;5129518;27;20374;-44
2022/11/29 13:21:04;;;;;;;;;;;;;;;19.61;48.16;101523.19;5146312;27;20111;-43
2022/11/29 13:23:35;;;;;;;;;;;;;;;19.62;48.36;101530.34;5145901;27;20697;-42
2022/11/29 13:26:20;;;;;;;;;;;;;;;19.62;48.08;101529.53;5138860;27;20290;-41
2022/11/29 13:28:46;;;;;;;;;;;;;;;19.62;48.37;101532.28;5150026;27;20370;-43
2022/11/29 13:31:13;;;;;;;;;;;;;;;19.62;48.26;101529.53;5152041;27;19931;-42
2022/11/29 13:33:56;;;;;;;;;;;;;;;19.61;48.45;101533.41;5157401;27;19927;-42